Terminal Aerodrome Forecast
Issued by NWS

Home | Current Version | Previous Version | Text Only | Print | Product List | Glossary On
Versions: 1 2 3 4 5 6 7 8 9 10 11 12 13 14
101
FTUS44 KTSA 251720
TAFRVS
TAF
KRVS 251720Z 2518/2618 21005KT P6SM SKC
     FM260000 18012KT P6SM VCTS SCT030CB PROB30 2603/2609 5SM -TSRA
      BR BKN030CB
     FM260900 18009KT P6SM BKN130 BKN250=

USA.gov is the U.S. government's official web portal to all federal, state and local government web resources and services.